sensor_id;sensor_type;location;lat;lon;timestamp;pressure;altitude;pressure_sealevel;temperature;humidity
68948;BME280;55996;49.546;7.400;2022-08-06T00:02:07;99323.25;;;17.88;75.74
68948;BME280;55996;49.546;7.400;2022-08-06T00:04:33;99325.97;;;17.86;76.58
68948;BME280;55996;49.546;7.400;2022-08-06T00:06:58;99328.34;;;17.75;76.43
68948;BME280;55996;49.546;7.400;2022-08-06T00:09:24;99345.28;;;17.71;76.25
68948;BME280;55996;49.546;7.400;2022-08-06T00:11:52;99336.22;;;17.59;77.04
68948;BME280;55996;49.546;7.400;2022-08-06T00:14:17;99356.56;;;17.57;77.29
68948;BME280;55996;49.546;7.400;2022-08-06T00:16:43;99354.09;;;17.54;77.86
68948;BME280;55996;49.546;7.400;2022-08-06T00:19:08;99359.75;;;17.64;77.48
68948;BME280;55996;49.546;7.400;2022-08-06T00:21:34;99361.09;;;17.72;77.55
68948;BME280;55996;49.546;7.400;2022-08-06T00:23:59;99344.13;;;17.59;76.99
68948;BME280;55996;49.546;7.400;2022-08-06T00:26:25;99360.22;;;17.72;76.76
68948;BME280;55996;49.546;7.400;2022-08-06T00:28:51;99365.81;;;17.66;76.97
68948;BME280;55996;49.546;7.400;2022-08-06T00:31:16;99364.38;;;17.60;77.94
68948;BME280;55996;49.546;7.400;2022-08-06T00:33:42;99360.44;;;17.67;77.64
68948;BME280;55996;49.546;7.400;2022-08-06T00:36:08;99366.81;;;17.81;77.79
68948;BME280;55996;49.546;7.400;2022-08-06T00:38:34;99365.72;;;17.85;78.49
68948;BME280;55996;49.546;7.400;2022-08-06T00:40:59;99367.09;;;17.92;77.46
68948;BME280;55996;49.546;7.400;2022-08-06T00:43:26;99372.28;;;17.95;76.65
68948;BME280;55996;49.546;7.400;2022-08-06T00:45:51;99360.38;;;17.86;76.26
68948;BME280;55996;49.546;7.400;2022-08-06T00:48:17;99362.84;;;17.89;75.77
68948;BME280;55996;49.546;7.400;2022-08-06T00:50:42;99366.13;;;17.95;76.33
68948;BME280;55996;49.546;7.400;2022-08-06T00:53:08;99369.94;;;17.89;75.77
68948;BME280;55996;49.546;7.400;2022-08-06T00:55:33;99362.31;;;17.83;76.11
68948;BME280;55996;49.546;7.400;2022-08-06T00:57:59;99377.47;;;17.79;77.25
68948;BME280;55996;49.546;7.400;2022-08-06T01:00:25;99379.75;;;17.69;77.18
68948;BME280;55996;49.546;7.400;2022-08-06T01:02:50;99373.53;;;17.70;76.57
68948;BME280;55996;49.546;7.400;2022-08-06T01:05:16;99381.47;;;17.53;75.25
68948;BME280;55996;49.546;7.400;2022-08-06T01:07:41;99391.47;;;17.64;76.74
68948;BME280;55996;49.546;7.400;2022-08-06T01:10:07;99393.91;;;17.68;77.92
68948;BME280;55996;49.546;7.400;2022-08-06T01:12:33;99388.47;;;17.71;76.99
68948;BME280;55996;49.546;7.400;2022-08-06T01:14:59;99380.75;;;17.67;78.67
68948;BME280;55996;49.546;7.400;2022-08-06T01:17:34;99395.63;;;17.69;76.78
68948;BME280;55996;49.546;7.400;2022-08-06T01:24:02;99384.25;;;17.50;75.37
68948;BME280;55996;49.546;7.400;2022-08-06T01:26:34;99399.56;;;17.43;76.10
68948;BME280;55996;49.546;7.400;2022-08-06T01:29:05;99393.81;;;17.35;76.34
68948;BME280;55996;49.546;7.400;2022-08-06T01:31:41;99402.03;;;17.29;77.02
68948;BME280;55996;49.546;7.400;2022-08-06T01:34:18;99401.41;;;17.23;74.40
68948;BME280;55996;49.546;7.400;2022-08-06T01:39:37;99398.84;;;17.22;73.33
68948;BME280;55996;49.546;7.400;2022-08-06T01:42:05;99395.34;;;17.39;73.61
68948;BME280;55996;49.546;7.400;2022-08-06T01:44:36;99390.72;;;17.44;74.29
68948;BME280;55996;49.546;7.400;2022-08-06T01:47:08;99404.09;;;17.58;72.93
68948;BME280;55996;49.546;7.400;2022-08-06T01:49:37;99399.81;;;17.56;72.31
68948;BME280;55996;49.546;7.400;2022-08-06T01:52:05;99406.50;;;17.63;72.87
68948;BME280;55996;49.546;7.400;2022-08-06T01:54:38;99411.97;;;17.60;73.21
68948;BME280;55996;49.546;7.400;2022-08-06T01:57:05;99413.19;;;17.53;74.27
68948;BME280;55996;49.546;7.400;2022-08-06T01:59:34;99413.19;;;17.35;71.72
68948;BME280;55996;49.546;7.400;2022-08-06T02:02:02;99409.38;;;17.41;71.88
68948;BME280;55996;49.546;7.400;2022-08-06T02:04:34;99417.16;;;17.44;71.33
68948;BME280;55996;49.546;7.400;2022-08-06T02:07:03;99419.09;;;17.40;73.03
68948;BME280;55996;49.546;7.400;2022-08-06T02:09:32;99414.88;;;17.36;72.87
68948;BME280;55996;49.546;7.400;2022-08-06T02:12:04;99414.72;;;17.39;72.57
68948;BME280;55996;49.546;7.400;2022-08-06T02:14:39;99414.72;;;17.39;72.93
68948;BME280;55996;49.546;7.400;2022-08-06T02:17:06;99421.44;;;17.47;71.48
68948;BME280;55996;49.546;7.400;2022-08-06T02:19:32;99429.50;;;17.43;72.16
68948;BME280;55996;49.546;7.400;2022-08-06T02:22:01;99423.50;;;17.40;72.48
68948;BME280;55996;49.546;7.400;2022-08-06T02:24:29;99429.97;;;17.34;73.47
68948;BME280;55996;49.546;7.400;2022-08-06T02:26:59;99430.09;;;17.31;71.85
68948;BME280;55996;49.546;7.400;2022-08-06T02:29:27;99426.91;;;17.24;71.15
68948;BME280;55996;49.546;7.400;2022-08-06T02:31:53;99416.47;;;17.21;72.69
68948;BME280;55996;49.546;7.400;2022-08-06T02:34:20;99428.97;;;17.18;72.28
68948;BME280;55996;49.546;7.400;2022-08-06T02:36:52;99415.81;;;16.99;70.39
68948;BME280;55996;49.546;7.400;2022-08-06T02:39:27;99429.09;;;16.97;71.14
68948;BME280;55996;49.546;7.400;2022-08-06T02:42:07;99438.03;;;16.94;72.18
68948;BME280;55996;49.546;7.400;2022-08-06T02:44:42;99444.50;;;16.87;72.13
68948;BME280;55996;49.546;7.400;2022-08-06T02:47:17;99460.91;;;16.75;71.05
68948;BME280;55996;49.546;7.400;2022-08-06T02:49:47;99438.72;;;16.60;71.89
68948;BME280;55996;49.546;7.400;2022-08-06T02:52:22;99460.09;;;16.73;72.03
68948;BME280;55996;49.546;7.400;2022-08-06T02:54:56;99448.69;;;16.72;71.02
68948;BME280;55996;49.546;7.400;2022-08-06T02:57:31;99454.97;;;16.70;72.09
68948;BME280;55996;49.546;7.400;2022-08-06T03:00:06;99441.91;;;16.67;71.40
68948;BME280;55996;49.546;7.400;2022-08-06T03:02:33;99447.63;;;16.57;71.76
68948;BME280;55996;49.546;7.400;2022-08-06T03:05:03;99453.09;;;16.53;72.99
68948;BME280;55996;49.546;7.400;2022-08-06T03:07:31;99452.66;;;16.43;73.42
68948;BME280;55996;49.546;7.400;2022-08-06T03:09:59;99436.25;;;16.36;73.03
68948;BME280;55996;49.546;7.400;2022-08-06T03:12:25;99457.13;;;16.41;72.80
68948;BME280;55996;49.546;7.400;2022-08-06T03:14:52;99451.19;;;16.37;74.53
68948;BME280;55996;49.546;7.400;2022-08-06T03:17:19;99454.31;;;16.45;74.57
68948;BME280;55996;49.546;7.400;2022-08-06T03:19:46;99454.22;;;16.28;72.90
68948;BME280;55996;49.546;7.400;2022-08-06T03:22:14;99452.09;;;16.36;72.28
68948;BME280;55996;49.546;7.400;2022-08-06T03:24:42;99465.06;;;16.41;72.02
68948;BME280;55996;49.546;7.400;2022-08-06T03:27:09;99454.38;;;16.44;73.42
68948;BME280;55996;49.546;7.400;2022-08-06T03:29:37;99462.22;;;16.45;72.52
68948;BME280;55996;49.546;7.400;2022-08-06T03:32:04;99446.66;;;16.39;72.86
68948;BME280;55996;49.546;7.400;2022-08-06T03:34:32;99462.56;;;16.38;72.36
68948;BME280;55996;49.546;7.400;2022-08-06T03:37:00;99460.66;;;16.41;73.90
68948;BME280;55996;49.546;7.400;2022-08-06T03:39:27;99464.63;;;16.31;73.57
68948;BME280;55996;49.546;7.400;2022-08-06T03:41:54;99462.03;;;16.29;72.78
68948;BME280;55996;49.546;7.400;2022-08-06T03:44:21;99464.69;;;16.29;71.51
68948;BME280;55996;49.546;7.400;2022-08-06T03:49:29;99469.38;;;16.23;73.35
68948;BME280;55996;49.546;7.400;2022-08-06T03:51:58;99471.03;;;16.25;73.43
68948;BME280;55996;49.546;7.400;2022-08-06T03:54:28;99471.50;;;16.14;73.44
68948;BME280;55996;49.546;7.400;2022-08-06T03:56:57;99465.09;;;16.00;73.76
68948;BME280;55996;49.546;7.400;2022-08-06T03:59:26;99468.16;;;15.90;73.73
68948;BME280;55996;49.546;7.400;2022-08-06T04:01:53;99462.00;;;15.90;74.10
68948;BME280;55996;49.546;7.400;2022-08-06T04:04:22;99471.88;;;15.85;73.82
68948;BME280;55996;49.546;7.400;2022-08-06T04:06:49;99470.81;;;15.89;73.88
68948;BME280;55996;49.546;7.400;2022-08-06T04:09:16;99475.06;;;15.93;72.95
68948;BME280;55996;49.546;7.400;2022-08-06T04:11:43;99487.91;;;16.01;73.71
68948;BME280;55996;49.546;7.400;2022-08-06T04:14:10;99463.25;;;16.02;73.94
68948;BME280;55996;49.546;7.400;2022-08-06T04:16:36;99479.81;;;16.05;73.47
68948;BME280;55996;49.546;7.400;2022-08-06T04:19:04;99482.38;;;16.07;73.64
68948;BME280;55996;49.546;7.400;2022-08-06T04:21:30;99474.66;;;16.02;74.01
68948;BME280;55996;49.546;7.400;2022-08-06T04:23:56;99479.94;;;16.23;73.94
68948;BME280;55996;49.546;7.400;2022-08-06T04:26:23;99489.31;;;16.30;73.06
68948;BME280;55996;49.546;7.400;2022-08-06T04:28:53;99495.84;;;16.21;72.37
68948;BME280;55996;49.546;7.400;2022-08-06T04:31:21;99495.97;;;16.18;73.10
68948;BME280;55996;49.546;7.400;2022-08-06T04:33:49;99494.84;;;16.24;72.77
68948;BME280;55996;49.546;7.400;2022-08-06T04:36:16;99505.53;;;16.21;73.21
68948;BME280;55996;49.546;7.400;2022-08-06T04:38:43;99502.88;;;16.21;73.86
68948;BME280;55996;49.546;7.400;2022-08-06T04:41:10;99496.94;;;16.16;74.49
68948;BME280;55996;49.546;7.400;2022-08-06T04:43:37;99500.59;;;16.13;74.43
68948;BME280;55996;49.546;7.400;2022-08-06T04:46:04;99506.69;;;16.13;74.57
68948;BME280;55996;49.546;7.400;2022-08-06T04:48:30;99500.25;;;16.21;74.82
68948;BME280;55996;49.546;7.400;2022-08-06T04:50:56;99503.69;;;16.23;74.12
68948;BME280;55996;49.546;7.400;2022-08-06T04:53:22;99507.59;;;16.14;74.51
68948;BME280;55996;49.546;7.400;2022-08-06T04:55:48;99510.72;;;16.22;74.81
68948;BME280;55996;49.546;7.400;2022-08-06T04:58:15;99505.13;;;16.30;75.34
68948;BME280;55996;49.546;7.400;2022-08-06T05:00:46;99515.94;;;16.44;72.89
68948;BME280;55996;49.546;7.400;2022-08-06T05:03:13;99518.09;;;16.55;72.34
68948;BME280;55996;49.546;7.400;2022-08-06T05:05:46;99517.91;;;16.60;72.14
68948;BME280;55996;49.546;7.400;2022-08-06T05:08:13;99523.75;;;16.67;72.33
68948;BME280;55996;49.546;7.400;2022-08-06T05:11:01;99522.47;;;16.96;69.55
68948;BME280;55996;49.546;7.400;2022-08-06T05:13:31;99526.19;;;17.11;68.38
68948;BME280;55996;49.546;7.400;2022-08-06T05:16:02;99529.03;;;17.45;66.80
68948;BME280;55996;49.546;7.400;2022-08-06T05:18:41;99504.81;;;17.54;67.02
68948;BME280;55996;49.546;7.400;2022-08-06T05:21:08;99528.63;;;17.71;66.43
68948;BME280;55996;49.546;7.400;2022-08-06T05:23:43;99524.00;;;17.94;66.52
68948;BME280;55996;49.546;7.400;2022-08-06T05:26:10;99518.16;;;17.87;63.48
68948;BME280;55996;49.546;7.400;2022-08-06T05:28:39;99533.97;;;18.06;63.75
68948;BME280;55996;49.546;7.400;2022-08-06T05:31:05;99521.06;;;18.18;63.73
68948;BME280;55996;49.546;7.400;2022-08-06T05:33:33;99525.97;;;18.43;64.34
68948;BME280;55996;49.546;7.400;2022-08-06T05:35:59;99526.63;;;18.64;63.65
68948;BME280;55996;49.546;7.400;2022-08-06T05:38:25;99526.91;;;18.76;62.27
68948;BME280;55996;49.546;7.400;2022-08-06T05:40:53;99530.72;;;19.03;62.50
68948;BME280;55996;49.546;7.400;2022-08-06T05:43:21;99522.19;;;19.30;61.32
68948;BME280;55996;49.546;7.400;2022-08-06T05:45:48;99519.19;;;19.52;61.01
68948;BME280;55996;49.546;7.400;2022-08-06T05:48:17;99530.53;;;19.87;58.90
68948;BME280;55996;49.546;7.400;2022-08-06T05:50:47;99512.34;;;20.11;57.36
68948;BME280;55996;49.546;7.400;2022-08-06T05:53:35;99530.63;;;20.60;56.86
68948;BME280;55996;49.546;7.400;2022-08-06T05:56:14;99527.41;;;20.99;56.16
68948;BME280;55996;49.546;7.400;2022-08-06T05:58:50;99525.28;;;21.33;54.19
68948;BME280;55996;49.546;7.400;2022-08-06T06:01:16;99505.84;;;21.59;58.49
68948;BME280;55996;49.546;7.400;2022-08-06T06:03:43;99507.91;;;21.82;54.30
68948;BME280;55996;49.546;7.400;2022-08-06T06:06:10;99524.13;;;21.91;50.59
68948;BME280;55996;49.546;7.400;2022-08-06T06:08:37;99525.00;;;21.92;52.41
68948;BME280;55996;49.546;7.400;2022-08-06T06:11:03;99510.09;;;22.02;51.79
68948;BME280;55996;49.546;7.400;2022-08-06T06:13:30;99527.13;;;22.40;50.33
68948;BME280;55996;49.546;7.400;2022-08-06T06:27:07;99537.25;;;22.73;48.01
68948;BME280;55996;49.546;7.400;2022-08-06T06:29:45;99540.97;;;22.84;48.09
68948;BME280;55996;49.546;7.400;2022-08-06T06:32:23;99536.28;;;22.75;47.52
68948;BME280;55996;49.546;7.400;2022-08-06T06:34:59;99541.41;;;22.78;47.27
68948;BME280;55996;49.546;7.400;2022-08-06T06:42:59;99533.66;;;22.21;48.42
68948;BME280;55996;49.546;7.400;2022-08-06T06:45:51;99542.69;;;21.93;49.34
68948;BME280;55996;49.546;7.400;2022-08-06T06:48:23;99543.44;;;21.68;49.42
68948;BME280;55996;49.546;7.400;2022-08-06T06:50:53;99543.31;;;21.69;50.39
68948;BME280;55996;49.546;7.400;2022-08-06T06:53:20;99534.75;;;21.37;50.00
68948;BME280;55996;49.546;7.400;2022-08-06T06:55:52;99555.03;;;21.10;51.53
68948;BME280;55996;49.546;7.400;2022-08-06T06:58:35;99538.81;;;20.72;52.44
68948;BME280;55996;49.546;7.400;2022-08-06T07:01:04;99548.31;;;20.76;53.62
68948;BME280;55996;49.546;7.400;2022-08-06T07:03:31;99571.00;;;20.37;52.66
68948;BME280;55996;49.546;7.400;2022-08-06T07:05:59;99557.22;;;20.30;53.19
68948;BME280;55996;49.546;7.400;2022-08-06T07:08:28;99559.75;;;20.17;53.53
68948;BME280;55996;49.546;7.400;2022-08-06T07:10:55;99554.44;;;20.17;53.92
68948;BME280;55996;49.546;7.400;2022-08-06T07:13:21;99572.91;;;19.88;54.31
68948;BME280;55996;49.546;7.400;2022-08-06T07:15:49;99563.75;;;19.62;55.93
68948;BME280;55996;49.546;7.400;2022-08-06T07:18:16;99559.81;;;19.53;55.69
68948;BME280;55996;49.546;7.400;2022-08-06T07:20:43;99572.06;;;19.56;55.44
68948;BME280;55996;49.546;7.400;2022-08-06T07:23:10;99565.03;;;19.71;55.98
68948;BME280;55996;49.546;7.400;2022-08-06T07:25:44;99554.84;;;19.63;56.11
68948;BME280;55996;49.546;7.400;2022-08-06T07:28:12;99558.09;;;19.68;56.48
68948;BME280;55996;49.546;7.400;2022-08-06T07:30:40;99566.66;;;19.73;55.90
68948;BME280;55996;49.546;7.400;2022-08-06T07:33:06;99569.31;;;19.57;54.61
68948;BME280;55996;49.546;7.400;2022-08-06T07:35:34;99573.19;;;19.67;56.33
68948;BME280;55996;49.546;7.400;2022-08-06T07:38:02;99576.59;;;19.86;55.96
68948;BME280;55996;49.546;7.400;2022-08-06T07:40:38;99572.31;;;19.67;55.40
68948;BME280;55996;49.546;7.400;2022-08-06T07:43:13;99571.00;;;19.74;55.62
68948;BME280;55996;49.546;7.400;2022-08-06T07:45:40;99569.56;;;19.84;56.05
68948;BME280;55996;49.546;7.400;2022-08-06T07:48:09;99570.09;;;19.59;55.44
68948;BME280;55996;49.546;7.400;2022-08-06T07:50:36;99584.88;;;19.63;55.36
68948;BME280;55996;49.546;7.400;2022-08-06T07:53:02;99582.66;;;19.56;55.39
68948;BME280;55996;49.546;7.400;2022-08-06T07:55:28;99585.31;;;19.72;55.79
68948;BME280;55996;49.546;7.400;2022-08-06T07:57:56;99565.34;;;19.80;54.68
68948;BME280;55996;49.546;7.400;2022-08-06T08:00:23;99573.69;;;19.90;54.08
68948;BME280;55996;49.546;7.400;2022-08-06T08:02:50;99584.72;;;19.98;54.62
68948;BME280;55996;49.546;7.400;2022-08-06T08:05:56;99575.91;;;20.28;53.59
68948;BME280;55996;49.546;7.400;2022-08-06T08:08:41;99585.41;;;20.32;52.64
68948;BME280;55996;49.546;7.400;2022-08-06T08:11:08;99581.38;;;20.25;52.58
68948;BME280;55996;49.546;7.400;2022-08-06T08:13:34;99592.91;;;20.40;53.00
68948;BME280;55996;49.546;7.400;2022-08-06T08:16:03;99582.94;;;20.29;51.54
68948;BME280;55996;49.546;7.400;2022-08-06T08:18:30;99571.38;;;20.30;51.78
68948;BME280;55996;49.546;7.400;2022-08-06T08:20:59;99578.69;;;20.41;51.06
68948;BME280;55996;49.546;7.400;2022-08-06T08:23:26;99575.50;;;20.51;50.55
68948;BME280;55996;49.546;7.400;2022-08-06T08:25:55;99566.66;;;20.50;48.88
68948;BME280;55996;49.546;7.400;2022-08-06T08:28:21;99576.34;;;20.66;49.57
68948;BME280;55996;49.546;7.400;2022-08-06T08:30:47;99591.25;;;20.68;49.73
68948;BME280;55996;49.546;7.400;2022-08-06T08:33:12;99578.44;;;20.60;50.09
68948;BME280;55996;49.546;7.400;2022-08-06T08:35:38;99561.59;;;20.76;50.40
68948;BME280;55996;49.546;7.400;2022-08-06T08:38:04;99561.13;;;20.98;49.12
68948;BME280;55996;49.546;7.400;2022-08-06T08:40:31;99566.91;;;21.05;48.44
68948;BME280;55996;49.546;7.400;2022-08-06T08:43:01;99568.81;;;21.03;47.58
68948;BME280;55996;49.546;7.400;2022-08-06T08:45:28;99566.25;;;21.01;47.87
68948;BME280;55996;49.546;7.400;2022-08-06T08:47:55;99561.97;;;21.13;47.30
68948;BME280;55996;49.546;7.400;2022-08-06T08:50:26;99556.28;;;21.47;47.79
68948;BME280;55996;49.546;7.400;2022-08-06T08:53:03;99562.22;;;21.37;47.27
68948;BME280;55996;49.546;7.400;2022-08-06T08:55:31;99574.94;;;21.32;46.91
68948;BME280;55996;49.546;7.400;2022-08-06T08:57:56;99579.03;;;21.38;46.09
68948;BME280;55996;49.546;7.400;2022-08-06T09:00:23;99551.72;;;21.07;46.22
68948;BME280;55996;49.546;7.400;2022-08-06T09:02:50;99556.59;;;21.42;45.76
68948;BME280;55996;49.546;7.400;2022-08-06T09:05:16;99563.50;;;21.44;43.75
68948;BME280;55996;49.546;7.400;2022-08-06T09:07:42;99559.06;;;21.59;44.99
68948;BME280;55996;49.546;7.400;2022-08-06T09:10:09;99566.06;;;21.88;44.41
68948;BME280;55996;49.546;7.400;2022-08-06T09:12:35;99559.34;;;22.22;40.74
68948;BME280;55996;49.546;7.400;2022-08-06T09:15:01;99567.41;;;22.61;40.97
68948;BME280;55996;49.546;7.400;2022-08-06T09:17:28;99551.41;;;22.87;41.36
68948;BME280;55996;49.546;7.400;2022-08-06T09:19:54;99568.06;;;23.16;40.35
68948;BME280;55996;49.546;7.400;2022-08-06T09:22:20;99571.13;;;23.36;40.51
68948;BME280;55996;49.546;7.400;2022-08-06T09:24:45;99558.19;;;23.67;39.56
68948;BME280;55996;49.546;7.400;2022-08-06T09:27:13;99558.75;;;24.55;38.41
68948;BME280;55996;49.546;7.400;2022-08-06T09:29:56;99560.00;;;25.97;37.22
68948;BME280;55996;49.546;7.400;2022-08-06T09:35:24;99540.56;;;27.20;34.03
68948;BME280;55996;49.546;7.400;2022-08-06T09:38:00;99557.84;;;27.88;30.56
68948;BME280;55996;49.546;7.400;2022-08-06T09:40:26;99546.41;;;28.05;30.08
68948;BME280;55996;49.546;7.400;2022-08-06T09:42:52;99537.56;;;28.52;30.33
68948;BME280;55996;49.546;7.400;2022-08-06T09:45:22;99543.06;;;29.36;28.93
68948;BME280;55996;49.546;7.400;2022-08-06T09:48:00;99530.88;;;29.77;28.77
68948;BME280;55996;49.546;7.400;2022-08-06T09:50:40;99525.00;;;30.18;28.33
68948;BME280;55996;49.546;7.400;2022-08-06T09:53:06;99521.34;;;30.27;28.12
68948;BME280;55996;49.546;7.400;2022-08-06T09:55:31;99520.03;;;30.50;27.66
68948;BME280;55996;49.546;7.400;2022-08-06T09:57:58;99516.00;;;30.88;27.02
68948;BME280;55996;49.546;7.400;2022-08-06T10:00:26;99517.75;;;30.63;26.26
68948;BME280;55996;49.546;7.400;2022-08-06T10:03:03;99514.50;;;30.59;26.81
68948;BME280;55996;49.546;7.400;2022-08-06T10:05:30;99517.84;;;30.09;27.71
68948;BME280;55996;49.546;7.400;2022-08-06T10:08:11;99538.78;;;29.43;28.18
68948;BME280;55996;49.546;7.400;2022-08-06T10:10:50;99534.75;;;29.29;28.58
68948;BME280;55996;49.546;7.400;2022-08-06T10:13:26;99528.25;;;28.94;28.85
68948;BME280;55996;49.546;7.400;2022-08-06T10:16:01;99522.72;;;28.95;29.85
68948;BME280;55996;49.546;7.400;2022-08-06T10:18:44;99533.19;;;29.26;28.02
68948;BME280;55996;49.546;7.400;2022-08-06T10:21:18;99524.31;;;29.62;27.19
68948;BME280;55996;49.546;7.400;2022-08-06T10:23:49;99523.06;;;29.38;27.44
68948;BME280;55996;49.546;7.400;2022-08-06T10:26:30;99518.16;;;29.70;28.12
68948;BME280;55996;49.546;7.400;2022-08-06T10:29:02;99537.59;;;28.42;28.35
68948;BME280;55996;49.546;7.400;2022-08-06T10:31:29;99527.09;;;27.51;29.77
68948;BME280;55996;49.546;7.400;2022-08-06T10:34:10;99511.50;;;26.84;31.63
68948;BME280;55996;49.546;7.400;2022-08-06T10:36:43;99526.59;;;25.80;31.57
68948;BME280;55996;49.546;7.400;2022-08-06T10:39:09;99532.31;;;25.20;33.63
68948;BME280;55996;49.546;7.400;2022-08-06T10:41:35;99533.19;;;24.16;34.35
68948;BME280;55996;49.546;7.400;2022-08-06T10:44:04;99533.09;;;23.94;35.56
68948;BME280;55996;49.546;7.400;2022-08-06T10:46:31;99535.97;;;23.91;36.97
68948;BME280;55996;49.546;7.400;2022-08-06T10:48:58;99524.66;;;23.63;35.75
68948;BME280;55996;49.546;7.400;2022-08-06T10:51:24;99528.25;;;23.75;37.16
68948;BME280;55996;49.546;7.400;2022-08-06T10:53:52;99525.53;;;23.63;36.30
68948;BME280;55996;49.546;7.400;2022-08-06T10:56:17;99524.91;;;23.60;36.43
68948;BME280;55996;49.546;7.400;2022-08-06T10:58:43;99524.97;;;23.47;36.73
68948;BME280;55996;49.546;7.400;2022-08-06T11:01:15;99527.16;;;23.29;35.97
68948;BME280;55996;49.546;7.400;2022-08-06T11:15:19;99513.88;;;22.77;36.33
68948;BME280;55996;49.546;7.400;2022-08-06T11:17:48;99513.38;;;22.72;35.58
68948;BME280;55996;49.546;7.400;2022-08-06T11:22:59;99515.91;;;22.73;36.68
68948;BME280;55996;49.546;7.400;2022-08-06T11:25:40;99521.25;;;22.86;35.77
68948;BME280;55996;49.546;7.400;2022-08-06T11:28:20;99516.75;;;22.87;36.26
68948;BME280;55996;49.546;7.400;2022-08-06T11:31:06;99507.91;;;22.86;35.19
68948;BME280;55996;49.546;7.400;2022-08-06T11:36:03;99516.31;;;22.93;33.26
68948;BME280;55996;49.546;7.400;2022-08-06T11:41:17;99487.41;;;23.00;34.63
68948;BME280;55996;49.546;7.400;2022-08-06T11:59:31;99497.13;;;23.01;34.90
68948;BME280;55996;49.546;7.400;2022-08-06T12:01:58;99482.09;;;23.00;33.68
68948;BME280;55996;49.546;7.400;2022-08-06T12:07:23;99480.44;;;23.10;34.47
68948;BME280;55996;49.546;7.400;2022-08-06T12:15:03;99490.28;;;22.97;32.73
68948;BME280;55996;49.546;7.400;2022-08-06T12:17:29;99487.63;;;22.97;33.95
68948;BME280;55996;49.546;7.400;2022-08-06T12:19:57;99480.13;;;23.02;34.24
68948;BME280;55996;49.546;7.400;2022-08-06T12:22:26;99467.16;;;22.97;32.95
68948;BME280;55996;49.546;7.400;2022-08-06T12:24:53;99473.56;;;22.95;32.83
68948;BME280;55996;49.546;7.400;2022-08-06T12:27:21;99464.69;;;23.07;34.78
68948;BME280;55996;49.546;7.400;2022-08-06T12:29:48;99455.19;;;23.16;35.01
68948;BME280;55996;49.546;7.400;2022-08-06T12:34:51;99456.75;;;23.05;34.40
68948;BME280;55996;49.546;7.400;2022-08-06T12:37:18;99463.38;;;23.13;34.35
68948;BME280;55996;49.546;7.400;2022-08-06T12:39:44;99453.34;;;23.16;34.22
68948;BME280;55996;49.546;7.400;2022-08-06T12:42:30;99454.16;;;23.30;34.49
68948;BME280;55996;49.546;7.400;2022-08-06T12:44:56;99447.13;;;23.29;33.67
68948;BME280;55996;49.546;7.400;2022-08-06T12:47:22;99442.88;;;23.13;33.20
68948;BME280;55996;49.546;7.400;2022-08-06T12:49:51;99429.84;;;23.21;34.30
68948;BME280;55996;49.546;7.400;2022-08-06T12:52:19;99434.69;;;23.16;32.07
68948;BME280;55996;49.546;7.400;2022-08-06T12:54:48;99448.53;;;23.21;32.74
68948;BME280;55996;49.546;7.400;2022-08-06T12:57:25;99430.28;;;23.15;32.27
68948;BME280;55996;49.546;7.400;2022-08-06T12:59:52;99413.25;;;23.05;32.64
68948;BME280;55996;49.546;7.400;2022-08-06T13:02:19;99422.16;;;23.30;33.90
68948;BME280;55996;49.546;7.400;2022-08-06T13:04:48;99418.91;;;23.37;33.56
68948;BME280;55996;49.546;7.400;2022-08-06T13:07:15;99434.63;;;23.29;33.99
68948;BME280;55996;49.546;7.400;2022-08-06T13:09:43;99433.06;;;23.38;33.27
68948;BME280;55996;49.546;7.400;2022-08-06T13:12:19;99422.97;;;23.30;32.08
68948;BME280;55996;49.546;7.400;2022-08-06T13:17:15;99417.47;;;23.20;32.83
68948;BME280;55996;49.546;7.400;2022-08-06T13:19:55;99415.22;;;23.27;33.44
68948;BME280;55996;49.546;7.400;2022-08-06T13:22:22;99435.47;;;23.30;34.16
68948;BME280;55996;49.546;7.400;2022-08-06T13:24:48;99418.31;;;23.45;34.57
68948;BME280;55996;49.546;7.400;2022-08-06T13:27:14;99408.06;;;23.28;32.78
68948;BME280;55996;49.546;7.400;2022-08-06T13:29:59;99413.91;;;23.33;33.11
68948;BME280;55996;49.546;7.400;2022-08-06T13:32:26;99417.13;;;23.49;33.45
68948;BME280;55996;49.546;7.400;2022-08-06T13:34:53;99422.09;;;23.54;32.69
68948;BME280;55996;49.546;7.400;2022-08-06T13:40:09;99421.16;;;23.55;32.72
68948;BME280;55996;49.546;7.400;2022-08-06T13:42:55;99423.69;;;23.57;31.70
68948;BME280;55996;49.546;7.400;2022-08-06T13:45:26;99419.34;;;23.56;32.26
68948;BME280;55996;49.546;7.400;2022-08-06T13:48:09;99411.56;;;23.52;32.26
68948;BME280;55996;49.546;7.400;2022-08-06T13:50:37;99410.81;;;23.50;32.47
68948;BME280;55996;49.546;7.400;2022-08-06T13:53:05;99406.97;;;23.55;33.24
68948;BME280;55996;49.546;7.400;2022-08-06T13:55:30;99417.50;;;23.56;32.67
68948;BME280;55996;49.546;7.400;2022-08-06T13:57:57;99394.41;;;23.44;32.17
68948;BME280;55996;49.546;7.400;2022-08-06T14:00:24;99400.41;;;23.59;32.80
68948;BME280;55996;49.546;7.400;2022-08-06T14:02:51;99392.25;;;23.49;30.65
68948;BME280;55996;49.546;7.400;2022-08-06T14:05:16;99399.41;;;23.48;30.80
68948;BME280;55996;49.546;7.400;2022-08-06T14:07:42;99406.47;;;23.49;32.13
68948;BME280;55996;49.546;7.400;2022-08-06T14:10:08;99400.34;;;23.36;32.17
68948;BME280;55996;49.546;7.400;2022-08-06T14:12:34;99386.78;;;23.50;33.56
68948;BME280;55996;49.546;7.400;2022-08-06T14:15:00;99387.19;;;23.57;32.57
68948;BME280;55996;49.546;7.400;2022-08-06T14:17:26;99386.25;;;23.69;32.61
68948;BME280;55996;49.546;7.400;2022-08-06T14:19:51;99380.03;;;23.69;32.50
68948;BME280;55996;49.546;7.400;2022-08-06T14:22:17;99404.66;;;23.61;32.08
68948;BME280;55996;49.546;7.400;2022-08-06T14:24:43;99385.72;;;23.53;31.58
68948;BME280;55996;49.546;7.400;2022-08-06T14:27:09;99392.41;;;23.59;30.78
68948;BME280;55996;49.546;7.400;2022-08-06T14:29:35;99386.09;;;23.60;31.25
68948;BME280;55996;49.546;7.400;2022-08-06T14:32:05;99377.59;;;23.55;31.40